createdAt,value
2018-12-09T00:03:22.783Z,7.70
2018-12-09T00:08:26.388Z,7.60
2018-12-09T00:13:30.178Z,7.50
2018-12-09T00:18:33.795Z,7.50
2018-12-09T00:23:37.254Z,7.40
2018-12-09T00:28:40.959Z,7.60
2018-12-09T00:33:44.506Z,7.70
2018-12-09T00:38:48.026Z,8.00
2018-12-09T00:43:51.500Z,8.20
2018-12-09T00:48:55.774Z,8.30
2018-12-09T00:53:59.301Z,8.30
2018-12-09T00:59:02.901Z,8.30
2018-12-09T01:04:06.630Z,8.20
2018-12-09T01:09:11.131Z,8.10
2018-12-09T01:14:15.521Z,8.10
2018-12-09T01:19:18.979Z,7.90
2018-12-09T01:24:22.483Z,8.00
2018-12-09T01:29:26.070Z,8.10
2018-12-09T01:34:29.541Z,8.20
2018-12-09T01:39:33.203Z,8.30
2018-12-09T01:44:37.228Z,8.20
2018-12-09T01:49:40.766Z,8.00
2018-12-09T01:54:44.301Z,7.60
2018-12-09T01:59:47.792Z,7.20
2018-12-09T02:04:51.266Z,7.00
2018-12-09T02:09:54.885Z,6.90
2018-12-09T02:14:58.342Z,6.80
2018-12-09T02:20:01.865Z,6.70
2018-12-09T02:25:06.185Z,6.50
2018-12-09T02:35:46.611Z,6.30
2018-12-09T02:40:50.645Z,6.20
2018-12-09T02:45:54.791Z,6.10
2018-12-09T02:50:58.822Z,5.90
2018-12-09T02:56:03.922Z,5.90
2018-12-09T03:01:07.440Z,5.80
2018-12-09T03:06:11.254Z,5.80
2018-12-09T03:11:15.653Z,5.80
2018-12-09T03:16:20.351Z,5.90
2018-12-09T03:21:24.375Z,5.80
2018-12-09T03:26:29.164Z,5.80
2018-12-09T03:31:33.083Z,5.90
2018-12-09T03:36:36.631Z,5.90
2018-12-09T03:41:40.322Z,5.80
2018-12-09T03:46:43.870Z,5.70
2018-12-09T03:51:47.379Z,5.80
2018-12-09T03:56:50.858Z,5.80
2018-12-09T04:01:54.579Z,5.70
2018-12-09T04:06:58.292Z,5.70
2018-12-09T04:12:04.344Z,5.70
2018-12-09T04:17:07.878Z,5.80
2018-12-09T04:22:11.376Z,5.90
2018-12-09T04:27:14.832Z,6.00
2018-12-09T04:32:18.310Z,6.10
2018-12-09T04:37:21.902Z,6.00
2018-12-09T04:42:25.745Z,6.10
2018-12-09T04:47:29.233Z,6.00
2018-12-09T04:52:33.230Z,6.00
2018-12-09T04:57:38.218Z,6.00
2018-12-09T05:02:42.632Z,5.90
2018-12-09T05:07:46.624Z,5.80
2018-12-09T05:12:50.134Z,5.70
2018-12-09T05:17:53.680Z,5.60
2018-12-09T05:22:57.449Z,5.60
2018-12-09T05:28:00.923Z,5.50
2018-12-09T05:33:04.389Z,5.50
2018-12-09T05:38:08.083Z,5.50
2018-12-09T05:43:11.947Z,5.50
2018-12-09T05:48:17.127Z,5.50
2018-12-09T05:53:21.021Z,5.50
2018-12-09T05:58:28.134Z,5.50
2018-12-09T06:03:31.599Z,5.50
2018-12-09T06:08:35.327Z,5.50
2018-12-09T06:13:38.773Z,5.60
2018-12-09T06:18:42.523Z,5.50
2018-12-09T06:23:47.446Z,5.60
2018-12-09T06:28:51.986Z,5.70
2018-12-09T06:33:56.688Z,5.70
2018-12-09T06:39:00.150Z,5.80
2018-12-09T06:44:04.834Z,5.80
2018-12-09T06:49:08.469Z,5.70
2018-12-09T06:54:12.559Z,5.70
2018-12-09T06:59:17.071Z,5.70
2018-12-09T07:04:21.496Z,5.80
2018-12-09T07:09:25.200Z,5.70
2018-12-09T07:14:29.043Z,5.70
2018-12-09T07:19:32.564Z,5.70
2018-12-09T07:24:36.258Z,5.70
2018-12-09T07:29:39.999Z,5.80
2018-12-09T07:34:43.494Z,5.60
2018-12-09T07:39:47.353Z,5.50
2018-12-09T07:44:50.916Z,5.50
2018-12-09T07:49:54.831Z,5.60
2018-12-09T07:54:58.306Z,5.70
2018-12-09T08:00:01.782Z,5.90
2018-12-09T08:05:05.656Z,6.00
2018-12-09T08:10:09.755Z,6.00
2018-12-09T08:15:13.658Z,6.10
2018-12-09T08:20:18.071Z,6.00
2018-12-09T08:25:21.843Z,6.00
2018-12-09T08:30:25.733Z,6.00
2018-12-09T08:35:29.286Z,6.10
2018-12-09T08:40:33.071Z,6.20
2018-12-09T08:45:37.307Z,6.10
2018-12-09T08:50:43.481Z,6.10
2018-12-09T08:55:52.824Z,6.10
2018-12-09T09:01:03.610Z,6.10
2018-12-09T09:06:08.785Z,6.10
2018-12-09T09:11:16.045Z,6.00
2018-12-09T09:16:20.801Z,6.00
2018-12-09T09:21:25.942Z,6.10
2018-12-09T09:26:30.569Z,6.00
2018-12-09T09:31:35.365Z,6.20
2018-12-09T09:36:38.949Z,6.20
2018-12-09T09:41:43.017Z,6.20
2018-12-09T09:46:46.643Z,6.00
2018-12-09T09:51:50.250Z,6.00
2018-12-09T09:56:54.657Z,6.00
2018-12-09T10:01:58.359Z,6.20
2018-12-09T10:07:02.789Z,6.40
2018-12-09T10:12:07.996Z,6.40
2018-12-09T10:17:12.071Z,6.20
2018-12-09T10:22:15.700Z,6.10
2018-12-09T10:27:19.282Z,6.00
2018-12-09T10:32:22.923Z,5.90
2018-12-09T10:37:26.486Z,5.80
2018-12-09T10:42:29.994Z,5.70
2018-12-09T10:47:33.514Z,5.70
2018-12-09T10:52:37.678Z,5.70
2018-12-09T11:03:45.883Z,5.60
2018-12-09T11:08:49.529Z,5.50
2018-12-09T11:13:58.067Z,5.60
2018-12-09T11:18:59.687Z,5.50
2018-12-09T11:24:05.005Z,5.50
2018-12-09T11:29:09.327Z,5.60
2018-12-09T11:34:14.287Z,5.60
2018-12-09T11:39:18.202Z,5.60
2018-12-09T11:44:23.248Z,5.70
2018-12-09T11:49:26.917Z,5.90
2018-12-09T11:54:30.464Z,5.90
2018-12-09T11:59:34.070Z,6.00
2018-12-09T12:04:39.620Z,6.10
2018-12-09T12:09:43.493Z,6.10
2018-12-09T12:14:47.869Z,6.30
2018-12-09T12:19:51.920Z,6.30
2018-12-09T12:24:56.577Z,6.40
2018-12-09T12:30:00.067Z,6.20
2018-12-09T12:35:03.885Z,6.20
2018-12-09T12:40:07.567Z,6.20
2018-12-09T12:45:11.301Z,6.10
2018-12-09T12:50:15.185Z,6.10
2018-12-09T12:55:18.803Z,6.00
2018-12-09T13:00:23.083Z,6.00
2018-12-09T13:05:27.874Z,6.00
2018-12-09T13:10:32.405Z,5.80
2018-12-09T13:15:36.130Z,5.80
2018-12-09T13:20:40.706Z,5.80
2018-12-09T13:25:44.630Z,5.70
2018-12-09T13:30:48.588Z,5.60
2018-12-09T13:35:52.716Z,5.60
2018-12-09T13:40:56.746Z,5.60
2018-12-09T13:46:00.849Z,5.60
2018-12-09T13:51:05.380Z,5.70
2018-12-09T13:56:09.759Z,5.70
2018-12-09T14:01:13.607Z,5.70
2018-12-09T14:06:17.238Z,5.70
2018-12-09T14:11:21.059Z,5.60
2018-12-09T14:16:24.775Z,5.60
2018-12-09T14:21:29.197Z,5.60
2018-12-09T14:26:32.945Z,5.60
2018-12-09T14:31:36.735Z,5.60
2018-12-09T14:36:40.747Z,5.60
2018-12-09T14:41:44.471Z,5.50
2018-12-09T14:46:48.592Z,5.40
2018-12-09T14:51:52.581Z,5.30
2018-12-09T14:56:56.900Z,5.20
2018-12-09T15:02:00.621Z,5.20
2018-12-09T15:07:04.167Z,5.10
2018-12-09T15:12:08.782Z,5.00
2018-12-09T15:17:12.343Z,5.00
2018-12-09T15:22:15.833Z,5.00
2018-12-09T15:27:19.425Z,5.00
2018-12-09T15:32:22.898Z,5.00
2018-12-09T15:37:26.511Z,5.00
2018-12-09T15:42:30.319Z,5.00
2018-12-09T15:47:33.904Z,5.00
2018-12-09T15:52:37.480Z,5.00
2018-12-09T15:57:41.018Z,5.10
2018-12-09T16:02:44.620Z,5.10
2018-12-09T16:07:48.123Z,5.10
2018-12-09T16:12:51.623Z,5.20
2018-12-09T16:17:55.138Z,5.20
2018-12-09T16:22:59.199Z,5.30
2018-12-09T16:28:02.826Z,5.40
2018-12-09T16:33:06.839Z,5.30
2018-12-09T16:43:25.368Z,5.40
2018-12-09T16:48:29.967Z,5.30
2018-12-09T16:53:35.030Z,5.40
2018-12-09T16:58:38.970Z,5.40
2018-12-09T17:03:44.051Z,5.30
2018-12-09T17:08:48.181Z,5.30
2018-12-09T17:13:52.009Z,5.30
2018-12-09T17:18:56.165Z,5.30
2018-12-09T17:24:00.480Z,5.30
2018-12-09T17:29:05.780Z,5.40
2018-12-09T17:34:09.486Z,5.40
2018-12-09T17:39:13.250Z,5.40
2018-12-09T17:44:17.331Z,5.40
2018-12-09T17:49:21.164Z,5.50
2018-12-09T17:54:25.911Z,5.40
2018-12-09T17:59:30.567Z,5.50
2018-12-09T18:04:35.221Z,5.50
2018-12-09T18:09:39.702Z,5.60
2018-12-09T18:14:43.377Z,5.70
2018-12-09T18:19:47.089Z,5.70
2018-12-09T18:24:50.915Z,5.70
2018-12-09T18:29:54.533Z,5.80
2018-12-09T18:34:58.310Z,5.80
2018-12-09T18:40:02.192Z,5.70
2018-12-09T18:45:07.995Z,5.80
2018-12-09T18:50:11.642Z,5.80
2018-12-09T18:55:15.331Z,5.80
2018-12-09T19:00:19.184Z,5.80
2018-12-09T19:05:22.883Z,5.80
2018-12-09T19:10:26.885Z,5.70
2018-12-09T19:15:30.646Z,5.80
2018-12-09T19:20:34.139Z,5.80
2018-12-09T19:25:37.899Z,5.80
2018-12-09T19:30:48.119Z,5.80
2018-12-09T19:35:49.864Z,5.70
2018-12-09T19:40:53.368Z,5.70
2018-12-09T19:45:57.231Z,5.50
2018-12-09T19:51:03.107Z,5.50
2018-12-09T19:56:08.153Z,5.60
2018-12-09T20:01:12.218Z,5.50
2018-12-09T20:06:15.825Z,5.40
2018-12-09T20:11:19.789Z,5.10
2018-12-09T20:16:23.502Z,5.00
2018-12-09T20:21:27.001Z,5.00
2018-12-09T20:26:31.099Z,5.00
2018-12-09T20:31:35.401Z,5.10
2018-12-09T20:36:39.628Z,5.20
2018-12-09T20:41:45.443Z,5.30
2018-12-09T20:46:49.158Z,5.40
2018-12-09T20:51:52.643Z,5.40
2018-12-09T20:56:57.904Z,5.40
2018-12-09T21:02:01.434Z,5.40
2018-12-09T21:07:05.350Z,5.30
2018-12-09T21:12:09.321Z,5.40
2018-12-09T21:17:14.068Z,5.40
2018-12-09T21:22:17.630Z,5.30
2018-12-09T21:27:21.318Z,5.10
2018-12-09T21:32:25.981Z,4.90
2018-12-09T21:37:29.852Z,4.90
2018-12-09T21:42:33.346Z,5.10
2018-12-09T21:47:36.842Z,5.10
2018-12-09T21:52:40.400Z,5.10
2018-12-09T21:57:44.712Z,5.10
2018-12-09T22:02:48.815Z,5.10
2018-12-09T22:07:52.626Z,5.20
2018-12-09T22:12:57.040Z,5.10
2018-12-09T22:18:01.720Z,5.10
2018-12-09T22:23:05.203Z,5.10
2018-12-09T22:28:08.685Z,5.00
2018-12-09T22:33:12.148Z,5.10
2018-12-09T22:38:16.412Z,5.20
2018-12-09T22:43:19.978Z,5.10
2018-12-09T22:48:23.769Z,5.10
2018-12-09T22:53:27.627Z,5.10
2018-12-09T22:58:31.279Z,5.10
2018-12-09T23:03:34.825Z,5.10
2018-12-09T23:08:38.740Z,5.10
2018-12-09T23:13:42.631Z,5.10
2018-12-09T23:18:47.027Z,5.10
2018-12-09T23:23:50.896Z,5.00
2018-12-09T23:28:54.371Z,4.90
2018-12-09T23:33:58.051Z,5.00
2018-12-09T23:39:01.528Z,5.00
2018-12-09T23:44:05.012Z,5.00
2018-12-09T23:49:08.879Z,5.00
2018-12-09T23:54:12.390Z,5.00
2018-12-09T23:59:16.785Z,5.10
